VYMD/MDL METAR and TAF weather

Enter ICAO airport designator
Station Type Date Time Source
VYMD METAR 2020/01/21 09:30 UTC NOAA

VYMD 210930Z 34006KT 7000 NSC 30/12 Q1012 NOSIG


Station Type Date Time Source
VYMD Decoded METAR 2020/01/21 09:30 UTC NOAA

Station name not available
Jan 21, 2020 - 04:30 AM EST / 2020.01.21 0930 UTC
Wind: from the NNW (340 degrees) at 7 MPH (6 KT):0
Visibility: 4 mile(s):0
Temperature: 86 F (30 C)
Dew Point: 53 F (12 C)
Relative Humidity: 33%
Pressure (altimeter): 29.88 in. Hg (1012 hPa)
ob: VYMD 210930Z 34006KT 7000 NSC 30/12 Q1012 NOSIG
cycle: 9

Station Type Date Time Source
VYMD TAF 2020/01/21 06:00 UTC NOAA

TAF VYMD 210500Z 2106/2206 30002KT 7000 FEW020
TEMPO 2106/2112 32003KT 6000 FEW020

Example: see airport list